createdAt,value
2018-11-29T00:00:36.930Z,1.20
2018-11-29T00:03:05.422Z,0.40
2018-11-29T00:05:33.027Z,0.50
2018-11-29T00:08:00.803Z,0.60
2018-11-29T00:10:28.255Z,0.33
2018-11-29T00:12:55.783Z,0.40
2018-11-29T00:15:23.609Z,0.30
2018-11-29T00:17:51.097Z,0.30
2018-11-29T00:20:19.280Z,0.40
2018-11-29T00:22:47.473Z,0.50
2018-11-29T00:25:16.579Z,0.70
2018-11-29T00:27:44.383Z,0.60
2018-11-29T00:30:15.945Z,0.43
2018-11-29T00:32:46.235Z,0.60
2018-11-29T00:35:14.492Z,0.40
2018-11-29T00:37:42.293Z,0.43
2018-11-29T00:40:13.782Z,0.40
2018-11-29T00:42:41.227Z,0.40
2018-11-29T00:45:10.083Z,0.20
2018-11-29T00:47:37.611Z,0.20
2018-11-29T00:50:07.152Z,0.50
2018-11-29T00:52:34.808Z,0.40
2018-11-29T00:55:02.317Z,0.20
2018-11-29T00:57:29.812Z,0.20
2018-11-29T00:59:57.395Z,0.20
2018-11-29T01:02:24.876Z,0.37
2018-11-29T01:04:52.334Z,0.40
2018-11-29T01:07:19.949Z,0.43
2018-11-29T01:09:47.427Z,0.20
2018-11-29T01:12:14.968Z,0.30
2018-11-29T01:14:42.764Z,0.40
2018-11-29T01:17:10.345Z,0.20
2018-11-29T01:19:37.825Z,0.30
2018-11-29T01:22:05.402Z,0.30
2018-11-29T01:24:32.942Z,0.60
2018-11-29T01:27:00.409Z,0.30
2018-11-29T01:29:28.009Z,0.20
2018-11-29T01:31:55.504Z,0.20
2018-11-29T01:34:22.989Z,0.20
2018-11-29T01:36:50.541Z,0.30
2018-11-29T01:39:18.048Z,0.20
2018-11-29T01:41:45.534Z,0.40
2018-11-29T01:44:13.489Z,0.43
2018-11-29T01:46:40.956Z,0.20
2018-11-29T01:49:08.426Z,0.20
2018-11-29T01:51:36.107Z,0.30
2018-11-29T01:54:03.648Z,0.27
2018-11-29T01:56:31.125Z,0.30
2018-11-29T01:58:58.831Z,0.27
2018-11-29T02:01:26.362Z,0.20
2018-11-29T02:03:53.846Z,0.50
2018-11-29T02:06:21.554Z,0.33
2018-11-29T02:08:49.096Z,0.30
2018-11-29T02:11:16.594Z,0.20
2018-11-29T02:13:44.368Z,0.30
2018-11-29T02:16:11.792Z,0.30
2018-11-29T02:18:39.334Z,0.40
2018-11-29T02:21:07.803Z,0.43
2018-11-29T02:23:35.479Z,0.17
2018-11-29T02:26:03.002Z,0.20
2018-11-29T02:28:30.883Z,0.30
2018-11-29T02:30:58.376Z,0.43
2018-11-29T02:33:26.077Z,0.30
2018-11-29T02:35:53.765Z,0.30
2018-11-29T02:38:21.230Z,0.27
2018-11-29T02:40:48.732Z,0.30
2018-11-29T02:43:16.339Z,0.33
2018-11-29T02:45:43.811Z,0.20
2018-11-29T02:48:11.365Z,0.30
2018-11-29T02:50:39.079Z,0.33
2018-11-29T02:53:06.589Z,0.37
2018-11-29T02:55:34.216Z,0.40
2018-11-29T02:58:02.891Z,0.40
2018-11-29T03:00:30.406Z,0.40
2018-11-29T03:02:57.910Z,0.20
2018-11-29T03:05:25.771Z,0.30
2018-11-29T03:07:53.261Z,0.40
2018-11-29T03:10:25.612Z,0.40
2018-11-29T03:12:53.288Z,0.30
2018-11-29T03:15:20.935Z,0.50
2018-11-29T03:17:48.504Z,0.30
2018-11-29T03:20:16.139Z,0.30
2018-11-29T03:22:43.793Z,0.30
2018-11-29T03:25:13.970Z,0.27
2018-11-29T03:27:41.757Z,0.30
2018-11-29T03:30:11.361Z,0.30
2018-11-29T03:32:38.785Z,0.50
2018-11-29T03:35:06.755Z,0.57
2018-11-29T03:37:34.229Z,0.37
2018-11-29T03:40:03.158Z,0.67
2018-11-29T03:42:30.967Z,0.40
2018-11-29T03:44:58.536Z,0.40
2018-11-29T03:47:26.040Z,0.60
2018-11-29T03:49:53.656Z,0.50
2018-11-29T03:52:21.103Z,0.50
2018-11-29T03:54:48.613Z,0.70
2018-11-29T03:57:16.239Z,0.60
2018-11-29T03:59:43.709Z,0.80
2018-11-29T04:02:11.206Z,0.47
2018-11-29T04:04:39.006Z,0.47
2018-11-29T04:07:06.551Z,0.60
2018-11-29T04:09:34.031Z,0.50
2018-11-29T04:12:01.700Z,0.80
2018-11-29T04:14:29.251Z,0.70
2018-11-29T04:16:56.713Z,0.60
2018-11-29T04:19:24.359Z,0.43
2018-11-29T04:21:51.878Z,0.60
2018-11-29T04:24:19.384Z,0.77
2018-11-29T04:26:47.109Z,0.70
2018-11-29T04:29:14.579Z,0.60
2018-11-29T04:31:42.012Z,0.70
2018-11-29T04:34:09.679Z,0.73
2018-11-29T04:36:37.172Z,0.67
2018-11-29T04:39:06.409Z,0.50
2018-11-29T04:41:34.013Z,0.70
2018-11-29T04:44:01.515Z,0.80
2018-11-29T04:46:47.396Z,0.47
2018-11-29T04:49:14.943Z,0.70
2018-11-29T04:51:42.446Z,0.60
2018-11-29T04:54:10.350Z,0.70
2018-11-29T04:56:38.116Z,0.50
2018-11-29T04:59:05.840Z,0.70
2018-11-29T05:01:33.561Z,0.70
2018-11-29T05:04:01.098Z,0.63
2018-11-29T05:06:28.772Z,0.70
2018-11-29T05:08:56.399Z,0.50
2018-11-29T05:11:23.910Z,0.70
2018-11-29T05:13:51.401Z,0.50
2018-11-29T05:16:19.179Z,0.70
2018-11-29T05:18:46.693Z,0.70
2018-11-29T05:21:14.174Z,0.90
2018-11-29T05:23:41.831Z,0.90
2018-11-29T05:26:09.326Z,0.63
2018-11-29T05:28:36.850Z,0.70
2018-11-29T05:31:04.746Z,0.70
2018-11-29T05:33:32.214Z,0.70
2018-11-29T05:35:59.739Z,0.70
2018-11-29T05:38:27.419Z,0.73
2018-11-29T05:40:54.911Z,0.70
2018-11-29T05:43:22.358Z,0.93
2018-11-29T05:45:50.065Z,0.80
2018-11-29T05:48:17.528Z,0.70
2018-11-29T05:50:45.098Z,0.77
2018-11-29T05:53:12.852Z,0.70
2018-11-29T05:55:40.349Z,0.77
2018-11-29T05:58:07.829Z,0.70
2018-11-29T06:00:35.695Z,0.83
2018-11-29T06:03:03.261Z,0.90
2018-11-29T06:05:30.784Z,0.63
2018-11-29T06:07:58.448Z,0.83
2018-11-29T06:10:25.979Z,0.80
2018-11-29T06:12:53.451Z,1.10
2018-11-29T06:15:21.123Z,0.60
2018-11-29T06:17:48.633Z,0.80
2018-11-29T06:20:17.802Z,0.77
2018-11-29T06:22:45.525Z,0.80
2018-11-29T06:25:13.079Z,0.80
2018-11-29T06:27:40.716Z,1.00
2018-11-29T06:30:12.376Z,1.17
2018-11-29T06:32:39.889Z,0.70
2018-11-29T06:35:07.493Z,1.07
2018-11-29T06:37:35.285Z,0.90
2018-11-29T06:40:03.250Z,0.80
2018-11-29T06:42:30.734Z,0.90
2018-11-29T06:44:58.550Z,1.50
2018-11-29T06:47:26.091Z,1.20
2018-11-29T06:49:53.517Z,0.87
2018-11-29T06:52:21.147Z,0.80
2018-11-29T06:54:48.662Z,1.00
2018-11-29T06:57:16.211Z,0.80
2018-11-29T06:59:43.826Z,1.00
2018-11-29T07:02:11.377Z,1.30
2018-11-29T07:04:38.866Z,0.77
2018-11-29T07:07:06.448Z,1.10
2018-11-29T07:09:34.018Z,1.10
2018-11-29T07:12:01.510Z,0.90
2018-11-29T07:14:29.191Z,0.93
2018-11-29T07:16:56.685Z,0.80
2018-11-29T07:19:24.187Z,0.80
2018-11-29T07:21:53.755Z,0.90
2018-11-29T07:24:21.529Z,1.20
2018-11-29T07:26:49.126Z,0.97
2018-11-29T07:29:17.191Z,1.20
2018-11-29T07:31:44.400Z,1.33
2018-11-29T07:34:11.972Z,0.80
2018-11-29T07:36:39.553Z,1.10
2018-11-29T07:39:08.498Z,1.20
2018-11-29T07:41:36.579Z,1.37
2018-11-29T07:44:04.569Z,1.10
2018-11-29T07:46:32.037Z,1.03
2018-11-29T07:48:59.557Z,1.13
2018-11-29T07:51:27.276Z,0.93
2018-11-29T07:53:54.736Z,1.20
2018-11-29T07:56:22.249Z,1.00
2018-11-29T07:58:52.450Z,1.10
2018-11-29T08:01:17.531Z,1.10
2018-11-29T08:03:45.010Z,0.97
2018-11-29T08:06:12.751Z,1.13
2018-11-29T08:08:40.301Z,0.90
2018-11-29T08:11:07.836Z,0.90
2018-11-29T08:13:35.573Z,1.10
2018-11-29T08:16:03.022Z,0.83
2018-11-29T08:18:30.554Z,0.90
2018-11-29T08:20:58.303Z,1.30
2018-11-29T08:23:25.820Z,1.00
2018-11-29T08:25:53.353Z,1.00
2018-11-29T08:28:21.187Z,1.47
2018-11-29T08:30:48.684Z,1.17
2018-11-29T08:33:16.159Z,1.27
2018-11-29T08:35:43.958Z,1.00
2018-11-29T08:38:11.445Z,0.90
2018-11-29T08:40:38.925Z,0.97
2018-11-29T08:43:06.906Z,1.10
2018-11-29T08:45:34.406Z,0.90
2018-11-29T08:48:01.907Z,0.90
2018-11-29T08:50:29.643Z,1.10
2018-11-29T08:52:57.167Z,0.93
2018-11-29T08:55:24.709Z,1.00
2018-11-29T08:57:52.496Z,1.10
2018-11-29T09:00:20.685Z,0.90
2018-11-29T09:02:48.408Z,1.03
2018-11-29T09:05:16.265Z,1.00
2018-11-29T09:07:44.685Z,1.17
2018-11-29T09:10:14.275Z,0.90
2018-11-29T09:12:41.964Z,0.93
2018-11-29T09:15:11.599Z,1.60
2018-11-29T09:17:39.255Z,1.20
2018-11-29T09:20:10.974Z,1.73
2018-11-29T09:22:38.497Z,1.13
2018-11-29T09:25:08.251Z,1.23
2018-11-29T09:27:36.105Z,1.47
2018-11-29T09:30:05.554Z,1.10
2018-11-29T09:32:33.086Z,1.27
2018-11-29T09:35:00.713Z,1.33
2018-11-29T09:37:28.225Z,1.30
2018-11-29T09:39:55.728Z,1.03
2018-11-29T09:42:23.439Z,1.30
2018-11-29T09:44:50.911Z,1.33
2018-11-29T09:47:18.423Z,1.23
2018-11-29T09:49:46.172Z,1.03
2018-11-29T09:52:13.640Z,1.67
2018-11-29T09:54:41.222Z,1.00
2018-11-29T09:57:09.002Z,1.30
2018-11-29T09:59:36.488Z,1.63
2018-11-29T10:02:04.108Z,1.33
2018-11-29T10:04:31.957Z,1.00
2018-11-29T10:06:59.514Z,1.33
2018-11-29T10:09:27.055Z,1.40
2018-11-29T10:11:55.692Z,1.20
2018-11-29T10:14:23.190Z,1.50
2018-11-29T10:16:50.670Z,2.00
2018-11-29T10:19:18.336Z,1.00
2018-11-29T10:21:45.893Z,1.33
2018-11-29T10:24:13.349Z,1.60
2018-11-29T10:26:41.001Z,1.50
2018-11-29T10:29:08.524Z,1.17
2018-11-29T10:31:36.050Z,1.50
2018-11-29T10:34:03.782Z,1.47
2018-11-29T10:36:31.377Z,1.67
2018-11-29T10:38:59.091Z,1.73
2018-11-29T10:41:26.775Z,1.90
2018-11-29T10:43:54.330Z,1.50
2018-11-29T10:46:21.862Z,2.53
2018-11-29T10:48:49.553Z,1.57
2018-11-29T10:51:17.016Z,1.60
2018-11-29T10:53:44.501Z,1.77
2018-11-29T10:56:12.150Z,1.53
2018-11-29T10:58:39.794Z,1.70
2018-11-29T11:03:16.037Z,2.03
2018-11-29T11:05:43.585Z,1.70
2018-11-29T11:08:11.111Z,2.00
2018-11-29T11:10:39.609Z,1.60
2018-11-29T11:13:07.277Z,1.70
2018-11-29T11:15:35.076Z,2.13
2018-11-29T11:18:03.054Z,2.30
2018-11-29T11:20:30.558Z,1.83
2018-11-29T11:22:58.121Z,2.40
2018-11-29T11:25:25.867Z,1.80
2018-11-29T11:27:53.371Z,2.03
2018-11-29T11:30:21.381Z,2.00
2018-11-29T11:32:50.176Z,1.60
2018-11-29T11:35:17.956Z,1.90
2018-11-29T11:37:45.697Z,2.23
2018-11-29T11:40:14.540Z,2.43
2018-11-29T11:42:42.476Z,2.00
2018-11-29T11:45:12.482Z,2.23
2018-11-29T11:47:40.529Z,2.30
2018-11-29T11:52:45.399Z,2.53
2018-11-29T11:55:18.682Z,2.20
2018-11-29T11:57:41.561Z,2.57
2018-11-29T12:00:21.083Z,2.40
2018-11-29T12:02:50.149Z,2.27
2018-11-29T12:05:17.908Z,2.93
2018-11-29T12:07:45.889Z,2.47
2018-11-29T12:10:14.559Z,2.73
2018-11-29T12:12:42.236Z,2.57
2018-11-29T12:15:11.364Z,2.87
2018-11-29T12:17:39.340Z,2.60
2018-11-29T12:20:15.709Z,2.53
2018-11-29T12:22:43.455Z,2.70
2018-11-29T12:25:14.769Z,2.57
2018-11-29T12:27:42.757Z,2.50
2018-11-29T12:30:15.520Z,2.77
2018-11-29T12:32:43.233Z,3.03
2018-11-29T12:35:11.312Z,2.70
2018-11-29T12:37:39.093Z,2.67
2018-11-29T12:40:09.764Z,2.90
2018-11-29T12:42:37.507Z,2.53
2018-11-29T12:45:07.240Z,2.90
2018-11-29T12:47:34.927Z,3.03
2018-11-29T12:50:02.856Z,2.77
2018-11-29T12:52:30.585Z,2.90
2018-11-29T12:54:58.269Z,3.60
2018-11-29T12:57:26.225Z,3.63
2018-11-29T12:59:53.896Z,3.20
2018-11-29T13:02:21.641Z,2.90
2018-11-29T13:04:49.647Z,3.33
2018-11-29T13:07:17.374Z,2.73
2018-11-29T13:09:45.078Z,3.50
2018-11-29T13:12:12.945Z,3.47
2018-11-29T13:14:40.695Z,3.47
2018-11-29T13:17:08.389Z,3.37
2018-11-29T13:19:36.177Z,3.33
2018-11-29T13:22:03.949Z,2.77
2018-11-29T13:24:31.655Z,3.73
2018-11-29T13:26:59.654Z,3.93
2018-11-29T13:29:27.323Z,3.87
2018-11-29T13:31:55.028Z,4.03
2018-11-29T13:34:22.995Z,3.50
2018-11-29T13:36:50.732Z,3.40
2018-11-29T13:39:18.529Z,4.00
2018-11-29T13:41:46.569Z,3.70
2018-11-29T13:44:14.254Z,3.60
2018-11-29T13:46:41.920Z,3.10
2018-11-29T13:49:09.957Z,3.87
2018-11-29T13:51:37.676Z,3.47
2018-11-29T13:54:05.709Z,3.47
2018-11-29T13:56:33.657Z,3.83
2018-11-29T13:59:01.402Z,3.70
2018-11-29T14:01:29.096Z,4.00
2018-11-29T14:03:56.986Z,3.20
2018-11-29T14:06:24.676Z,3.97
2018-11-29T14:08:52.404Z,3.60
2018-11-29T14:11:20.256Z,4.33
2018-11-29T14:13:47.924Z,3.60
2018-11-29T14:16:15.628Z,3.90
2018-11-29T14:18:43.596Z,3.60
2018-11-29T14:21:11.290Z,3.57
2018-11-29T14:23:38.948Z,3.53
2018-11-29T14:26:06.799Z,4.10
2018-11-29T14:28:34.509Z,4.40
2018-11-29T14:31:02.220Z,3.27
2018-11-29T14:33:30.197Z,3.97
2018-11-29T14:35:57.912Z,3.83
2018-11-29T14:38:25.637Z,3.40
2018-11-29T14:40:53.648Z,3.43
2018-11-29T14:43:21.340Z,3.73
2018-11-29T14:45:48.986Z,4.33
2018-11-29T14:48:16.981Z,4.23
2018-11-29T14:50:45.582Z,3.77
2018-11-29T14:53:13.271Z,3.83
2018-11-29T14:55:41.234Z,3.53
2018-11-29T14:58:11.134Z,3.90
2018-11-29T15:00:38.960Z,3.53
2018-11-29T15:03:09.312Z,3.97
2018-11-29T15:05:37.068Z,3.77
2018-11-29T15:08:05.550Z,4.10
2018-11-29T15:10:33.400Z,3.67
2018-11-29T15:13:01.251Z,4.10
2018-11-29T15:15:28.931Z,4.00
2018-11-29T15:17:56.708Z,3.60
2018-11-29T15:20:38.228Z,4.00
2018-11-29T15:23:06.994Z,3.50
2018-11-29T15:25:34.679Z,3.53
2018-11-29T15:28:02.416Z,4.03
2018-11-29T15:30:30.173Z,3.80
2018-11-29T15:32:57.913Z,3.50
2018-11-29T15:35:25.709Z,3.93
2018-11-29T15:37:53.520Z,3.20
2018-11-29T15:40:21.231Z,4.33
2018-11-29T15:42:48.942Z,3.70
2018-11-29T15:45:21.077Z,3.80
2018-11-29T15:47:48.844Z,3.47
2018-11-29T15:50:17.365Z,3.90
2018-11-29T15:52:45.328Z,3.53
2018-11-29T15:55:17.613Z,4.30
2018-11-29T15:57:46.467Z,3.43
2018-11-29T16:00:16.263Z,4.10
2018-11-29T16:02:44.480Z,3.70
2018-11-29T16:05:12.403Z,3.57
2018-11-29T16:07:40.177Z,4.20
2018-11-29T16:10:09.456Z,4.00
2018-11-29T16:12:37.388Z,4.10
2018-11-29T16:15:07.297Z,3.90
2018-11-29T16:17:35.096Z,4.40
2018-11-29T16:20:03.177Z,5.30
2018-11-29T16:22:30.867Z,4.30
2018-11-29T16:24:58.597Z,4.67
2018-11-29T16:27:26.407Z,4.90
2018-11-29T16:29:54.133Z,4.77
2018-11-29T16:32:21.832Z,5.20
2018-11-29T16:34:49.821Z,4.47
2018-11-29T16:37:17.595Z,3.87
2018-11-29T16:39:45.240Z,4.73
2018-11-29T16:42:13.100Z,4.33
2018-11-29T16:44:40.800Z,5.00
2018-11-29T16:47:08.445Z,4.33
2018-11-29T16:49:36.344Z,4.50
2018-11-29T16:52:04.080Z,4.67
2018-11-29T16:54:31.823Z,4.47
2018-11-29T16:56:59.815Z,5.07
2018-11-29T16:59:27.539Z,4.93
2018-11-29T17:01:55.214Z,4.70
2018-11-29T17:04:23.212Z,5.33
2018-11-29T17:06:50.923Z,4.73
2018-11-29T17:09:18.613Z,5.03
2018-11-29T17:11:46.980Z,5.63
2018-11-29T17:14:14.656Z,5.13
2018-11-29T17:16:42.529Z,5.27
2018-11-29T17:19:10.412Z,4.57
2018-11-29T17:21:38.147Z,4.93
2018-11-29T17:24:05.864Z,4.90
2018-11-29T17:26:33.672Z,5.23
2018-11-29T17:29:01.429Z,5.13
2018-11-29T17:31:29.144Z,4.83
2018-11-29T17:33:57.452Z,4.97
2018-11-29T17:36:25.145Z,5.07
2018-11-29T17:38:52.812Z,4.97
2018-11-29T17:41:20.684Z,5.20
2018-11-29T17:43:48.400Z,5.33
2018-11-29T17:46:16.066Z,5.00
2018-11-29T17:48:43.831Z,5.70
2018-11-29T17:51:12.084Z,5.47
2018-11-29T17:54:10.589Z,5.80
2018-11-29T17:56:38.305Z,5.50
2018-11-29T17:59:06.036Z,5.80
2018-11-29T18:01:33.923Z,5.13
2018-11-29T18:04:01.654Z,5.73
2018-11-29T18:06:29.340Z,6.03
2018-11-29T18:08:57.228Z,5.97
2018-11-29T18:11:24.923Z,5.83
2018-11-29T18:13:52.636Z,5.53
2018-11-29T18:16:20.516Z,4.93
2018-11-29T18:18:48.217Z,5.37
2018-11-29T18:21:15.912Z,5.10
2018-11-29T18:23:46.959Z,5.10
2018-11-29T18:26:11.640Z,5.23
2018-11-29T18:28:39.544Z,5.40
2018-11-29T18:31:07.401Z,5.13
2018-11-29T18:33:35.108Z,5.33
2018-11-29T18:36:02.798Z,5.93
2018-11-29T18:38:30.792Z,6.07
2018-11-29T18:40:58.460Z,5.87
2018-11-29T18:43:26.196Z,5.83
2018-11-29T18:45:54.108Z,6.73
2018-11-29T18:48:21.808Z,5.70
2018-11-29T18:50:49.484Z,5.73
2018-11-29T18:53:17.288Z,6.20
2018-11-29T18:55:44.980Z,6.43
2018-11-29T18:58:12.712Z,5.90
2018-11-29T19:00:40.652Z,5.90
2018-11-29T19:03:08.472Z,6.23
2018-11-29T19:05:36.148Z,5.27
2018-11-29T19:08:04.209Z,6.27
2018-11-29T19:10:31.896Z,6.50
2018-11-29T19:13:00.936Z,6.47
2018-11-29T19:15:28.984Z,6.20
2018-11-29T19:17:56.654Z,6.23
2018-11-29T19:20:24.378Z,6.67
2018-11-29T19:22:52.272Z,5.67
2018-11-29T19:25:20.227Z,6.10
2018-11-29T19:27:47.931Z,6.23
2018-11-29T19:30:24.661Z,6.17
2018-11-29T19:33:17.143Z,6.37
2018-11-29T19:35:39.841Z,5.67
2018-11-29T19:38:07.541Z,5.93
2018-11-29T19:40:35.276Z,6.53
2018-11-29T19:43:03.156Z,6.40
2018-11-29T19:45:30.885Z,5.77
2018-11-29T19:47:58.544Z,6.27
2018-11-29T19:50:26.420Z,5.67
2018-11-29T19:52:55.616Z,6.00
2018-11-29T19:55:28.629Z,6.13
2018-11-29T19:57:56.345Z,5.80
2018-11-29T20:00:24.049Z,5.60
2018-11-29T20:02:53.220Z,6.53
2018-11-29T20:05:20.971Z,6.23
2018-11-29T20:07:48.700Z,6.33
2018-11-29T20:10:17.608Z,5.57
2018-11-29T20:12:46.393Z,5.53
2018-11-29T20:15:16.430Z,6.60
2018-11-29T20:17:44.264Z,5.90
2018-11-29T20:20:12.296Z,6.20
2018-11-29T20:22:40.352Z,5.37
2018-11-29T20:25:17.272Z,6.17
2018-11-29T20:27:45.121Z,6.20
2018-11-29T20:30:17.484Z,6.47
2018-11-29T20:32:45.804Z,6.37
2018-11-29T20:35:13.533Z,6.20
2018-11-29T20:37:41.421Z,5.53
2018-11-29T20:40:15.596Z,5.97
2018-11-29T20:42:43.565Z,5.20
2018-11-29T20:45:19.543Z,5.87
2018-11-29T20:47:47.378Z,5.67
2018-11-29T20:50:17.361Z,5.37
2018-11-29T20:52:45.747Z,5.80
2018-11-29T20:55:16.084Z,5.27
2018-11-29T20:57:43.776Z,4.93
2018-11-29T21:00:13.288Z,5.20
2018-11-29T21:02:41.164Z,5.70
2018-11-29T21:05:10.333Z,5.70
2018-11-29T21:07:38.205Z,5.33
2018-11-29T21:10:11.221Z,5.33
2018-11-29T21:12:39.020Z,4.90
2018-11-29T21:15:06.991Z,5.27
2018-11-29T21:17:34.908Z,5.60
2018-11-29T21:20:02.853Z,4.90
2018-11-29T21:22:30.551Z,5.47
2018-11-29T21:24:58.220Z,5.47
2018-11-29T21:27:26.048Z,5.37
2018-11-29T21:29:53.759Z,4.83
2018-11-29T21:32:21.428Z,5.00
2018-11-29T21:34:49.284Z,5.00
2018-11-29T21:37:16.977Z,5.03
2018-11-29T21:39:44.640Z,5.37
2018-11-29T21:42:12.562Z,5.30
2018-11-29T21:44:40.252Z,4.70
2018-11-29T21:47:07.938Z,5.30
2018-11-29T21:49:35.759Z,5.37
2018-11-29T21:52:03.448Z,5.27
2018-11-29T21:54:31.115Z,5.13
2018-11-29T21:56:58.882Z,5.20
2018-11-29T21:59:26.616Z,4.70
2018-11-29T22:01:54.367Z,5.67
2018-11-29T22:04:22.188Z,4.80
2018-11-29T22:06:49.856Z,4.50
2018-11-29T22:09:17.584Z,5.47
2018-11-29T22:11:45.384Z,5.80
2018-11-29T22:14:13.048Z,5.63
2018-11-29T22:16:40.740Z,5.40
2018-11-29T22:19:08.667Z,5.10
2018-11-29T22:21:36.351Z,5.03
2018-11-29T22:24:04.180Z,4.53
2018-11-29T22:26:31.972Z,5.83
2018-11-29T22:29:00.768Z,5.47
2018-11-29T22:31:27.469Z,5.63
2018-11-29T22:33:55.282Z,4.50
2018-11-29T22:36:22.929Z,4.87
2018-11-29T22:38:50.636Z,4.93
2018-11-29T22:41:18.361Z,5.13
2018-11-29T22:43:46.023Z,5.40
2018-11-29T22:46:13.729Z,5.83
2018-11-29T22:48:41.785Z,5.67
2018-11-29T22:51:09.452Z,5.00
2018-11-29T22:53:37.164Z,5.30
2018-11-29T22:56:05.257Z,5.07
2018-11-29T22:58:32.909Z,5.03
2018-11-29T23:01:00.680Z,5.13
2018-11-29T23:03:28.528Z,5.83
2018-11-29T23:05:56.202Z,5.17
2018-11-29T23:08:23.884Z,5.43
2018-11-29T23:10:51.776Z,5.50
2018-11-29T23:13:19.480Z,5.10
2018-11-29T23:15:47.171Z,5.27
2018-11-29T23:18:15.168Z,5.53
2018-11-29T23:20:42.822Z,6.00
2018-11-29T23:23:10.525Z,6.23
2018-11-29T23:25:38.286Z,6.17
2018-11-29T23:28:06.548Z,5.83
2018-11-29T23:30:34.289Z,5.50
2018-11-29T23:33:02.059Z,5.43
2018-11-29T23:35:29.793Z,5.33
2018-11-29T23:37:57.487Z,5.40
2018-11-29T23:40:25.412Z,5.00
2018-11-29T23:42:53.144Z,5.30
2018-11-29T23:45:20.823Z,5.63
2018-11-29T23:47:48.569Z,5.53
2018-11-29T23:50:17.133Z,5.90
2018-11-29T23:52:45.053Z,6.30
2018-11-29T23:55:14.116Z,5.90
2018-11-29T23:57:41.806Z,6.23
